createdAt,value
2023-01-10T07:55:33.345Z,20.20
2023-01-10T08:05:34.744Z,20.70
2023-01-10T08:15:36.144Z,20.80
2023-01-10T08:25:39.503Z,20.90
2023-01-10T08:35:41.049Z,20.90
2023-01-10T08:45:42.455Z,20.90
2023-01-10T08:55:43.882Z,20.50
2023-01-10T09:05:45.287Z,20.50
2023-01-10T09:15:46.697Z,20.50
2023-01-10T09:25:48.118Z,20.40
2023-01-10T09:35:49.522Z,20.60
2023-01-10T09:45:50.915Z,20.90
2023-01-10T09:55:52.371Z,20.80
2023-01-10T10:06:00.839Z,20.90
2023-01-10T10:16:08.685Z,20.90
2023-01-10T10:26:10.132Z,20.90
2023-01-10T10:36:11.628Z,21.10
2023-01-10T10:46:13.078Z,21.30
2023-01-10T10:56:14.530Z,21.30
2023-01-10T11:06:16.132Z,21.10
2023-01-10T11:16:17.577Z,20.80
2023-01-10T11:26:19.001Z,20.70
2023-01-10T11:36:20.399Z,20.80
2023-01-10T11:46:21.909Z,20.80
2023-01-10T11:56:23.406Z,20.70
2023-01-10T12:06:24.816Z,20.70
2023-01-10T12:16:26.249Z,20.70
2023-01-10T12:26:27.656Z,20.70
2023-01-10T12:36:29.064Z,20.60
2023-01-10T12:47:04.116Z,20.70
2023-01-10T12:56:51.839Z,21.00
2023-01-10T13:06:53.225Z,21.10
2023-01-10T13:16:54.665Z,21.00
2023-01-10T13:26:56.060Z,21.20
2023-01-10T13:36:57.463Z,21.20
2023-01-10T13:46:58.874Z,21.20
2023-01-10T13:57:00.301Z,21.20
2023-01-10T14:07:01.717Z,21.20
2023-01-10T14:17:03.098Z,21.30
2023-01-10T14:27:04.517Z,21.50
2023-01-10T14:37:05.927Z,21.60
2023-01-10T14:47:07.325Z,21.50
2023-01-10T14:57:08.750Z,21.50
2023-01-10T15:07:10.156Z,21.40
2023-01-10T15:17:11.571Z,21.40
2023-01-10T15:27:12.997Z,21.40
2023-01-10T15:37:14.396Z,21.40
2023-01-10T15:47:15.789Z,21.60
2023-01-10T15:57:17.192Z,21.60
2023-01-10T16:07:18.703Z,21.50
2023-01-10T16:17:20.130Z,21.30
2023-01-10T16:27:21.527Z,21.20
2023-01-10T16:37:22.921Z,21.10
2023-01-10T16:47:24.307Z,21.10
